createdAt,value
2017-05-13T00:01:58.106Z,16.80
2017-05-13T00:04:25.389Z,16.90
2017-05-13T00:06:52.665Z,16.90
2017-05-13T00:09:20.078Z,16.90
2017-05-13T00:11:47.361Z,16.70
2017-05-13T00:14:14.798Z,16.70
2017-05-13T00:16:42.074Z,16.70
2017-05-13T00:19:09.355Z,16.80
2017-05-13T00:21:37.047Z,16.80
2017-05-13T00:24:04.367Z,16.80
2017-05-13T00:26:31.645Z,16.80
2017-05-13T00:28:58.918Z,16.80
2017-05-13T00:31:26.275Z,16.80
2017-05-13T00:33:53.175Z,16.80
2017-05-13T00:36:20.894Z,16.80
2017-05-13T00:38:48.208Z,16.80
2017-05-13T00:41:15.858Z,16.80
2017-05-13T00:43:42.740Z,16.80
2017-05-13T00:46:09.708Z,16.70
2017-05-13T00:48:37.065Z,16.50
2017-05-13T00:51:04.347Z,16.50
2017-05-13T00:53:31.257Z,16.50
2017-05-13T00:55:58.146Z,16.40
2017-05-13T00:58:25.464Z,16.40
2017-05-13T01:00:52.757Z,16.40
2017-05-13T01:03:20.418Z,16.30
2017-05-13T01:05:47.347Z,16.30
2017-05-13T01:08:14.632Z,16.10
2017-05-13T01:10:42.485Z,16.00
2017-05-13T01:13:09.898Z,15.90
2017-05-13T01:15:36.875Z,15.90
2017-05-13T01:18:03.798Z,15.90
2017-05-13T01:20:30.709Z,15.80
2017-05-13T01:22:57.803Z,15.70
2017-05-13T01:25:25.128Z,15.70
2017-05-13T01:27:52.015Z,15.70
2017-05-13T01:30:19.301Z,15.60
2017-05-13T01:32:47.017Z,15.50
2017-05-13T01:35:14.331Z,15.60
2017-05-13T01:37:41.638Z,15.40
2017-05-13T01:40:08.915Z,15.40
2017-05-13T01:42:36.598Z,15.30
2017-05-13T01:45:04.250Z,15.30
2017-05-13T01:47:31.602Z,15.30
2017-05-13T01:49:58.891Z,15.10
2017-05-13T01:52:26.178Z,15.00
2017-05-13T01:54:53.533Z,15.10
2017-05-13T01:57:20.883Z,15.00
2017-05-13T01:59:48.162Z,15.00
2017-05-13T02:02:15.491Z,15.00
2017-05-13T02:04:42.808Z,15.00
2017-05-13T02:07:10.208Z,15.10
2017-05-13T02:09:37.487Z,15.10
2017-05-13T02:12:04.374Z,15.10
2017-05-13T02:14:31.681Z,15.10
2017-05-13T02:16:58.970Z,15.10
2017-05-13T02:19:26.254Z,15.00
2017-05-13T02:21:53.568Z,14.90
2017-05-13T02:24:20.882Z,14.90
2017-05-13T02:26:48.159Z,15.00
2017-05-13T02:29:15.470Z,15.00
2017-05-13T02:31:42.793Z,15.00
2017-05-13T02:34:10.498Z,14.90
2017-05-13T02:36:37.786Z,15.00
2017-05-13T02:39:04.824Z,15.00
2017-05-13T02:41:32.166Z,15.00
2017-05-13T02:43:59.454Z,15.00
2017-05-13T02:46:27.155Z,15.00
2017-05-13T02:48:54.436Z,14.90
2017-05-13T02:51:21.733Z,14.90
2017-05-13T02:53:49.046Z,14.80
2017-05-13T02:56:16.398Z,14.70
2017-05-13T02:58:43.682Z,14.70
2017-05-13T03:01:10.604Z,14.70
2017-05-13T03:03:37.886Z,14.70
2017-05-13T03:06:05.165Z,14.60
2017-05-13T03:08:32.863Z,14.60
2017-05-13T03:11:00.238Z,14.70
2017-05-13T03:13:27.521Z,14.70
2017-05-13T03:15:54.459Z,14.70
2017-05-13T03:18:21.758Z,14.70
2017-05-13T03:20:49.057Z,14.60
2017-05-13T03:23:16.362Z,14.70
2017-05-13T03:25:43.688Z,14.80
2017-05-13T03:28:11.343Z,14.70
2017-05-13T03:30:38.618Z,14.60
2017-05-13T03:33:06.338Z,14.60
2017-05-13T03:35:33.630Z,14.50
2017-05-13T03:38:01.290Z,14.50
2017-05-13T03:40:28.966Z,14.60
2017-05-13T03:42:56.274Z,14.60
2017-05-13T03:45:23.606Z,14.70
2017-05-13T03:47:50.567Z,14.70
2017-05-13T03:50:17.850Z,14.70
2017-05-13T03:52:45.374Z,14.70
2017-05-13T03:55:12.756Z,14.70
2017-05-13T03:57:40.037Z,14.60
2017-05-13T04:00:07.756Z,14.70
2017-05-13T04:02:35.050Z,14.60
2017-05-13T04:05:02.710Z,14.60
2017-05-13T04:07:30.038Z,14.50
2017-05-13T04:09:58.006Z,14.50
2017-05-13T04:12:25.287Z,14.40
2017-05-13T04:14:52.632Z,14.30
2017-05-13T04:17:19.982Z,14.40
2017-05-13T04:19:46.874Z,14.40
2017-05-13T04:22:14.187Z,14.70
2017-05-13T04:24:41.503Z,14.70
2017-05-13T04:27:08.790Z,14.80
2017-05-13T04:29:36.078Z,15.00
2017-05-13T04:32:03.762Z,15.10
2017-05-13T04:34:31.044Z,15.10
2017-05-13T04:36:58.322Z,15.10
2017-05-13T04:39:25.626Z,15.20
2017-05-13T04:41:52.939Z,15.30
2017-05-13T04:44:20.222Z,15.30
2017-05-13T04:46:47.105Z,15.30
2017-05-13T04:49:14.020Z,15.40
2017-05-13T04:51:41.330Z,15.70
2017-05-13T04:54:08.650Z,15.80
2017-05-13T04:56:35.939Z,15.80
2017-05-13T04:59:02.862Z,15.80
2017-05-13T05:01:30.397Z,16.10
2017-05-13T05:03:57.685Z,16.10
2017-05-13T05:06:25.037Z,16.20
2017-05-13T05:08:52.430Z,16.20
2017-05-13T05:11:19.712Z,16.40
2017-05-13T05:13:47.050Z,16.40
2017-05-13T05:16:14.707Z,16.50
2017-05-13T05:18:42.430Z,16.60
2017-05-13T05:21:09.760Z,16.60
2017-05-13T05:23:36.648Z,16.60
2017-05-13T05:26:03.981Z,16.00
2017-05-13T05:28:31.282Z,15.80
2017-05-13T05:30:58.949Z,15.80
2017-05-13T05:33:26.635Z,16.00
2017-05-13T05:35:53.909Z,16.10
2017-05-13T05:38:21.196Z,16.40
2017-05-13T05:40:48.526Z,16.50
2017-05-13T05:43:15.818Z,16.30
2017-05-13T05:45:42.701Z,16.30
2017-05-13T05:48:10.042Z,16.40
2017-05-13T05:50:37.321Z,16.70
2017-05-13T05:53:04.285Z,16.70
2017-05-13T05:55:31.642Z,16.90
2017-05-13T05:57:58.934Z,17.00
2017-05-13T06:00:26.593Z,17.20
2017-05-13T06:02:53.907Z,17.30
2017-05-13T06:05:20.896Z,17.30
2017-05-13T06:07:48.601Z,17.20
2017-05-13T06:10:15.882Z,17.40
2017-05-13T06:12:43.167Z,17.10
2017-05-13T06:15:10.502Z,16.90
2017-05-13T06:17:37.784Z,17.00
2017-05-13T06:20:05.072Z,17.20
2017-05-13T06:22:32.377Z,17.00
2017-05-13T06:24:59.670Z,16.90
2017-05-13T06:27:27.059Z,17.00
2017-05-13T06:29:54.333Z,17.20
2017-05-13T06:32:21.619Z,17.30
2017-05-13T06:34:49.338Z,17.50
2017-05-13T06:37:16.618Z,17.50
2017-05-13T06:39:43.916Z,17.30
2017-05-13T06:42:11.232Z,17.40
2017-05-13T06:44:38.117Z,17.40
2017-05-13T06:47:05.452Z,17.80
2017-05-13T06:49:33.118Z,18.10
2017-05-13T06:52:00.771Z,18.30
2017-05-13T06:54:28.468Z,18.30
2017-05-13T06:56:55.755Z,18.30
2017-05-13T06:59:23.031Z,18.30
2017-05-13T07:01:49.938Z,18.20
2017-05-13T07:04:16.817Z,18.30
2017-05-13T07:06:44.180Z,18.30
2017-05-13T07:09:11.462Z,18.50
2017-05-13T07:11:38.450Z,18.50
2017-05-13T07:14:05.769Z,18.80
2017-05-13T07:16:33.050Z,18.90
2017-05-13T07:18:59.964Z,18.90
2017-05-13T07:21:27.281Z,19.00
2017-05-13T07:23:54.566Z,19.00
2017-05-13T07:26:22.274Z,19.10
2017-05-13T07:28:49.558Z,19.30
2017-05-13T07:31:16.449Z,19.30
2017-05-13T07:33:43.824Z,19.40
2017-05-13T07:36:10.718Z,19.40
2017-05-13T07:38:38.445Z,19.40
2017-05-13T07:41:05.784Z,19.40
2017-05-13T07:43:33.078Z,19.40
2017-05-13T07:46:00.362Z,19.40
2017-05-13T07:48:27.710Z,19.50
2017-05-13T07:50:55.005Z,19.60
2017-05-13T07:53:22.282Z,19.40
2017-05-13T07:55:49.606Z,19.00
2017-05-13T07:58:16.917Z,19.10
2017-05-13T08:00:44.198Z,19.30
2017-05-13T08:03:11.170Z,19.30
2017-05-13T08:05:38.535Z,19.40
2017-05-13T08:08:05.818Z,19.40
2017-05-13T08:10:33.143Z,19.50
2017-05-13T08:13:00.449Z,19.60
2017-05-13T08:15:28.199Z,19.70
2017-05-13T08:17:55.530Z,19.70
2017-05-13T08:20:22.824Z,19.80
2017-05-13T08:22:50.122Z,20.00
2017-05-13T08:25:17.081Z,20.00
2017-05-13T08:27:43.982Z,19.90
2017-05-13T08:30:11.623Z,19.60
2017-05-13T08:32:38.937Z,19.70
2017-05-13T08:35:06.219Z,20.00
2017-05-13T08:37:33.490Z,20.30
2017-05-13T08:40:00.805Z,20.70
2017-05-13T08:42:27.947Z,20.70
2017-05-13T08:44:54.839Z,21.00
2017-05-13T08:47:22.166Z,21.40
2017-05-13T08:49:49.461Z,21.40
2017-05-13T08:52:17.176Z,21.40
2017-05-13T08:54:44.494Z,21.40
2017-05-13T08:57:12.198Z,21.60
2017-05-13T08:59:39.482Z,21.70
2017-05-13T09:02:06.822Z,21.70
2017-05-13T09:04:34.115Z,22.00
2017-05-13T09:07:01.006Z,22.00
2017-05-13T09:09:28.322Z,22.30
2017-05-13T09:11:55.966Z,22.40
2017-05-13T09:14:23.277Z,22.40
2017-05-13T09:16:50.634Z,22.30
2017-05-13T09:19:17.918Z,22.10
2017-05-13T09:21:45.189Z,21.90
2017-05-13T09:24:12.118Z,21.90
2017-05-13T09:26:39.402Z,21.40
2017-05-13T09:29:07.050Z,21.40
2017-05-13T09:31:34.739Z,21.30
2017-05-13T09:34:01.652Z,21.30
2017-05-13T09:36:28.536Z,21.40
2017-05-13T09:38:55.850Z,21.60
2017-05-13T09:41:23.179Z,21.80
2017-05-13T09:43:50.062Z,21.80
2017-05-13T09:46:17.016Z,21.90
2017-05-13T09:48:44.686Z,22.20
2017-05-13T09:51:11.986Z,21.50
2017-05-13T09:53:39.314Z,21.20
2017-05-13T09:56:06.195Z,21.20
2017-05-13T09:58:33.573Z,21.80
2017-05-13T10:01:00.890Z,22.20
2017-05-13T10:03:28.170Z,22.30
2017-05-13T10:05:55.476Z,22.60
2017-05-13T10:08:22.793Z,22.80
2017-05-13T10:10:50.080Z,23.00
2017-05-13T10:13:17.378Z,23.10
2017-05-13T10:15:44.707Z,23.20
2017-05-13T10:18:11.985Z,23.20
2017-05-13T10:20:39.290Z,23.30
2017-05-13T10:23:07.030Z,23.20
2017-05-13T10:25:34.313Z,23.30
2017-05-13T10:28:01.598Z,23.40
2017-05-13T10:30:28.970Z,23.40
2017-05-13T10:32:56.310Z,23.40
2017-05-13T10:35:23.589Z,23.20
2017-05-13T10:37:50.509Z,23.20
2017-05-13T10:40:17.453Z,23.20
2017-05-13T10:42:44.739Z,23.60
2017-05-13T10:45:12.165Z,23.70
2017-05-13T10:47:39.503Z,23.80
2017-05-13T10:50:06.780Z,23.80
2017-05-13T10:52:34.174Z,23.90
2017-05-13T10:55:01.459Z,23.90
2017-05-13T10:57:28.436Z,23.90
2017-05-13T10:59:55.795Z,23.50
2017-05-13T11:02:23.379Z,23.50
2017-05-13T11:04:51.094Z,22.90
2017-05-13T11:07:18.025Z,22.60
2017-05-13T11:09:45.321Z,22.90
2017-05-13T11:12:12.621Z,22.70
2017-05-13T11:14:39.560Z,22.70
2017-05-13T11:17:06.446Z,22.00
2017-05-13T11:19:33.729Z,21.20
2017-05-13T11:22:01.074Z,21.10
2017-05-13T11:24:28.358Z,20.90
2017-05-13T11:26:55.683Z,20.90
2017-05-13T11:29:23.050Z,20.50
2017-05-13T11:31:50.342Z,20.20
2017-05-13T11:34:18.031Z,20.10
2017-05-13T11:36:44.966Z,20.10
2017-05-13T11:39:12.677Z,19.90
2017-05-13T11:41:40.074Z,19.60
2017-05-13T11:44:06.994Z,19.60
2017-05-13T11:46:34.326Z,19.60
2017-05-13T11:49:01.605Z,19.50
2017-05-13T11:51:28.962Z,19.60
2017-05-13T11:53:56.247Z,19.80
2017-05-13T11:56:23.913Z,20.30
2017-05-13T11:58:51.621Z,20.70
2017-05-13T12:01:18.983Z,21.10
2017-05-13T12:03:46.326Z,21.20
2017-05-13T12:06:13.681Z,21.10
2017-05-13T12:08:40.630Z,21.10
2017-05-13T12:11:07.925Z,20.30
2017-05-13T12:13:35.251Z,19.70
2017-05-13T12:16:02.599Z,19.60
2017-05-13T12:18:29.869Z,20.10
2017-05-13T12:20:57.314Z,20.40
2017-05-13T12:23:24.589Z,20.60
2017-05-13T12:25:51.874Z,20.90
2017-05-13T12:28:19.589Z,21.10
2017-05-13T12:30:46.869Z,21.30
2017-05-13T12:33:14.152Z,21.50
2017-05-13T12:35:41.846Z,21.30
2017-05-13T12:38:09.218Z,21.30
2017-05-13T12:40:36.914Z,21.30
2017-05-13T12:43:04.234Z,21.60
2017-05-13T12:45:31.586Z,22.00
2017-05-13T12:47:58.858Z,22.00
2017-05-13T12:50:26.206Z,22.00
2017-05-13T12:52:53.558Z,21.90
2017-05-13T12:55:20.838Z,21.70
2017-05-13T12:57:48.165Z,21.50
2017-05-13T13:00:15.467Z,21.50
2017-05-13T13:02:43.117Z,21.70
2017-05-13T13:05:10.467Z,22.30
2017-05-13T13:07:37.350Z,22.30
2017-05-13T13:10:04.629Z,22.90
2017-05-13T13:12:31.947Z,23.20
2017-05-13T13:14:59.658Z,23.40
2017-05-13T13:17:26.549Z,23.40
2017-05-13T13:19:54.267Z,22.90
2017-05-13T13:22:21.551Z,22.70
2017-05-13T13:24:48.850Z,22.40
2017-05-13T13:27:16.267Z,22.50
2017-05-13T13:29:43.549Z,22.90
2017-05-13T13:32:10.526Z,22.90
2017-05-13T13:34:37.458Z,23.50
2017-05-13T13:37:04.741Z,24.30
2017-05-13T13:39:32.026Z,24.60
2017-05-13T13:41:59.456Z,24.70
2017-05-13T13:44:26.738Z,24.70
2017-05-13T13:46:53.737Z,24.70
2017-05-13T13:49:21.075Z,24.20
2017-05-13T13:51:48.357Z,24.10
2017-05-13T13:54:15.641Z,24.10
2017-05-13T13:56:43.335Z,23.90
2017-05-13T13:59:10.235Z,23.90
2017-05-13T14:01:37.119Z,23.70
2017-05-13T14:04:04.448Z,23.90
2017-05-13T14:06:32.159Z,24.20
2017-05-13T14:08:59.148Z,24.20
2017-05-13T14:11:26.495Z,24.60
2017-05-13T14:13:53.417Z,24.60
2017-05-13T14:16:20.694Z,24.90
2017-05-13T14:18:48.041Z,25.10
2017-05-13T14:21:15.387Z,25.20
2017-05-13T14:23:42.687Z,25.30
2017-05-13T14:26:10.514Z,25.20
2017-05-13T14:28:37.796Z,25.20
2017-05-13T14:31:05.074Z,25.40
2017-05-13T14:33:32.049Z,25.40
2017-05-13T14:35:59.334Z,25.50
2017-05-13T14:38:26.606Z,25.30
2017-05-13T14:40:54.322Z,25.50
2017-05-13T14:43:21.609Z,25.70
2017-05-13T14:45:48.526Z,25.60
2017-05-13T14:48:15.488Z,25.80
2017-05-13T14:50:42.762Z,25.90
2017-05-13T14:53:10.034Z,25.90
2017-05-13T14:55:37.730Z,26.00
2017-05-13T14:58:05.010Z,26.00
2017-05-13T15:00:32.394Z,26.10
2017-05-13T15:02:59.733Z,26.30
2017-05-13T15:05:27.067Z,26.30
2017-05-13T15:07:54.425Z,25.90
2017-05-13T15:10:21.757Z,25.90
2017-05-13T15:12:48.666Z,26.00
2017-05-13T15:15:16.329Z,26.30
2017-05-13T15:17:44.037Z,26.50
2017-05-13T15:20:11.402Z,25.50
2017-05-13T15:22:38.673Z,24.90
2017-05-13T15:25:06.001Z,24.70
2017-05-13T15:27:33.278Z,25.20
2017-05-13T15:30:00.550Z,25.70
2017-05-13T15:32:27.882Z,26.10
2017-05-13T15:34:55.237Z,26.30
2017-05-13T15:37:22.586Z,26.30
2017-05-13T15:39:49.908Z,25.70
2017-05-13T15:42:16.890Z,25.70
2017-05-13T15:44:44.161Z,25.40
2017-05-13T15:47:11.500Z,25.80
2017-05-13T15:49:38.800Z,26.30
2017-05-13T15:52:06.106Z,26.50
2017-05-13T15:54:33.041Z,26.50
2017-05-13T15:57:00.330Z,26.40
2017-05-13T15:59:27.617Z,26.60
2017-05-13T16:01:55.021Z,26.70
2017-05-13T16:04:22.299Z,25.90
2017-05-13T16:06:49.574Z,25.60
2017-05-13T16:09:17.274Z,26.00
2017-05-13T16:11:44.162Z,26.00
2017-05-13T16:14:11.442Z,26.60
2017-05-13T16:16:38.378Z,26.60
2017-05-13T16:19:05.649Z,27.20
2017-05-13T16:21:33.298Z,27.30
2017-05-13T16:24:00.645Z,27.10
2017-05-13T16:26:27.922Z,26.70
2017-05-13T16:28:55.582Z,26.70
2017-05-13T16:31:23.286Z,26.60
2017-05-13T16:33:51.061Z,27.30
2017-05-13T16:36:18.414Z,28.70
2017-05-13T16:38:45.333Z,28.70
2017-05-13T16:41:12.654Z,28.10
2017-05-13T16:43:39.932Z,27.80
2017-05-13T16:46:07.630Z,28.20
2017-05-13T16:48:34.518Z,28.20
2017-05-13T16:51:01.794Z,28.90
2017-05-13T16:53:28.732Z,28.90
2017-05-13T16:55:55.633Z,29.00
2017-05-13T16:58:22.986Z,27.70
2017-05-13T17:00:50.318Z,27.60
2017-05-13T17:03:17.593Z,27.20
2017-05-13T17:05:44.875Z,26.80
2017-05-13T17:08:12.282Z,27.30
2017-05-13T17:10:39.554Z,27.90
2017-05-13T17:13:06.847Z,27.90
2017-05-13T17:15:34.255Z,27.80
2017-05-13T17:18:01.542Z,28.10
2017-05-13T17:20:28.818Z,28.20
2017-05-13T17:22:56.274Z,27.80
2017-05-13T17:25:23.553Z,26.90
2017-05-13T17:27:50.829Z,25.80
2017-05-13T17:30:18.149Z,24.70
2017-05-13T17:32:45.903Z,24.30
2017-05-13T17:35:13.556Z,24.10
2017-05-13T17:37:40.493Z,24.10
2017-05-13T17:40:07.777Z,23.90
2017-05-13T17:42:35.528Z,23.90
2017-05-13T17:45:02.847Z,23.80
2017-05-13T17:47:30.126Z,23.80
2017-05-13T17:49:57.019Z,23.80
2017-05-13T17:52:24.378Z,22.80
2017-05-13T17:54:51.264Z,22.80
2017-05-13T17:57:18.538Z,21.50
2017-05-13T17:59:46.236Z,21.70
2017-05-13T18:02:13.517Z,21.80
2017-05-13T18:04:40.794Z,21.70
2017-05-13T18:07:07.729Z,21.70
2017-05-13T18:09:35.090Z,21.70
2017-05-13T18:12:02.370Z,21.60
2017-05-13T18:14:29.795Z,21.60
2017-05-13T18:16:57.213Z,21.50
2017-05-13T18:19:24.489Z,21.60
2017-05-13T18:21:51.861Z,21.50
2017-05-13T18:24:19.157Z,21.60
2017-05-13T18:26:46.809Z,21.70
2017-05-13T18:29:14.162Z,21.80
2017-05-13T18:31:41.482Z,21.70
2017-05-13T18:34:08.766Z,21.60
2017-05-13T18:36:36.093Z,21.40
2017-05-13T18:39:03.390Z,21.30
2017-05-13T18:41:31.110Z,21.30
2017-05-13T18:43:58.438Z,21.30
2017-05-13T18:46:25.742Z,21.30
2017-05-13T18:48:53.041Z,21.20
2017-05-13T18:51:20.434Z,21.20
2017-05-13T18:53:47.790Z,21.20
2017-05-13T18:56:15.146Z,21.10
2017-05-13T18:58:42.474Z,21.00
2017-05-13T19:01:09.757Z,20.90
2017-05-13T19:03:37.047Z,20.80
2017-05-13T19:06:04.526Z,20.70
2017-05-13T19:08:31.824Z,20.60
2017-05-13T19:10:59.189Z,20.50
2017-05-13T19:13:26.533Z,20.50
2017-05-13T19:15:53.817Z,20.60
2017-05-13T19:18:21.099Z,20.60
2017-05-13T19:20:48.813Z,20.50
2017-05-13T19:23:16.116Z,20.50
2017-05-13T19:25:43.822Z,20.40
2017-05-13T19:28:11.158Z,20.10
2017-05-13T19:30:38.135Z,20.10
2017-05-13T19:33:05.606Z,20.00
2017-05-13T19:35:32.931Z,19.90
2017-05-13T19:38:00.215Z,19.90
2017-05-13T19:40:27.545Z,19.90
2017-05-13T19:42:54.925Z,19.90
2017-05-13T19:45:22.262Z,19.90
2017-05-13T19:47:49.547Z,20.00
2017-05-13T19:50:16.872Z,20.10
2017-05-13T19:52:44.221Z,20.10
2017-05-13T19:55:11.174Z,20.10
2017-05-13T19:57:38.498Z,20.10
2017-05-13T20:00:05.821Z,20.10
2017-05-13T20:02:33.113Z,20.00
2017-05-13T20:05:00.504Z,20.00
2017-05-13T20:07:28.269Z,20.00
2017-05-13T20:09:55.545Z,19.80
2017-05-13T20:12:22.898Z,19.70
2017-05-13T20:14:50.199Z,19.70
2017-05-13T20:17:17.530Z,19.60
2017-05-13T20:19:45.237Z,19.70
2017-05-13T20:22:12.519Z,19.60
2017-05-13T20:24:39.810Z,19.70
2017-05-13T20:27:07.510Z,19.70
2017-05-13T20:29:34.782Z,19.80
2017-05-13T20:32:02.075Z,19.80
2017-05-13T20:34:30.777Z,19.90
2017-05-13T20:36:57.115Z,19.80
2017-05-13T20:39:24.402Z,19.80
2017-05-13T20:41:51.806Z,19.80
2017-05-13T20:44:19.069Z,19.80
2017-05-13T20:46:46.717Z,19.70
2017-05-13T20:49:14.042Z,19.70
2017-05-13T20:51:41.321Z,19.70
2017-05-13T20:54:08.362Z,19.60
2017-05-13T20:56:35.295Z,19.60
2017-05-13T20:59:02.578Z,19.30
2017-05-13T21:01:30.233Z,19.20
2017-05-13T21:03:57.165Z,19.20
2017-05-13T21:06:24.454Z,19.20
2017-05-13T21:08:52.183Z,19.20
2017-05-13T21:11:19.510Z,19.20
2017-05-13T21:13:46.786Z,19.20
2017-05-13T21:16:14.074Z,19.30
2017-05-13T21:18:41.766Z,19.30
2017-05-13T21:21:09.054Z,19.30
2017-05-13T21:23:36.341Z,19.30
2017-05-13T21:26:04.055Z,19.30
2017-05-13T21:28:31.333Z,19.40
2017-05-13T21:30:58.615Z,19.30
2017-05-13T21:33:26.320Z,19.30
2017-05-13T21:35:53.598Z,19.30
2017-05-13T21:38:20.881Z,19.30
2017-05-13T21:40:48.198Z,19.30
2017-05-13T21:43:15.514Z,19.30
2017-05-13T21:45:42.802Z,19.30
2017-05-13T21:48:10.179Z,19.20
2017-05-13T21:50:37.458Z,19.10
2017-05-13T21:53:04.808Z,19.00
2017-05-13T21:55:31.706Z,19.00
2017-05-13T21:57:58.994Z,19.00
2017-05-13T22:00:26.331Z,18.90
2017-05-13T22:02:53.611Z,18.80
2017-05-13T22:05:20.943Z,18.70
2017-05-13T22:07:48.278Z,18.60
2017-05-13T22:10:15.563Z,18.70
2017-05-13T22:12:42.850Z,18.70
2017-05-13T22:15:10.538Z,18.80
2017-05-13T22:17:37.929Z,18.80
2017-05-13T22:20:05.215Z,18.80
2017-05-13T22:22:32.559Z,18.70
2017-05-13T22:25:00.002Z,18.60
2017-05-13T22:27:27.285Z,18.60
2017-05-13T22:29:54.607Z,18.60
2017-05-13T22:32:21.934Z,18.50
2017-05-13T22:34:49.218Z,18.40
2017-05-13T22:37:16.499Z,18.30
2017-05-13T22:39:43.835Z,18.30
2017-05-13T22:42:11.184Z,18.30
2017-05-13T22:44:38.483Z,18.20
2017-05-13T22:47:05.890Z,18.20
2017-05-13T22:49:33.169Z,18.20
2017-05-13T22:52:00.450Z,18.20
2017-05-13T22:54:28.146Z,18.10
2017-05-13T22:56:55.436Z,17.90
2017-05-13T22:59:22.718Z,18.00
2017-05-13T23:01:50.426Z,18.10
2017-05-13T23:04:17.311Z,18.10
2017-05-13T23:06:44.598Z,17.90
2017-05-13T23:09:11.921Z,17.70
2017-05-13T23:11:39.197Z,17.70
2017-05-13T23:14:06.502Z,17.60
2017-05-13T23:16:33.846Z,17.60
2017-05-13T23:19:01.126Z,17.60
2017-05-13T23:21:28.398Z,17.70
2017-05-13T23:23:55.327Z,17.70
2017-05-13T23:26:22.654Z,17.80
2017-05-13T23:28:50.018Z,17.80
2017-05-13T23:31:17.367Z,17.80
2017-05-13T23:33:44.646Z,17.80
2017-05-13T23:36:11.984Z,17.80
2017-05-13T23:38:39.301Z,17.80
2017-05-13T23:41:06.593Z,17.60
2017-05-13T23:43:33.866Z,17.60
2017-05-13T23:46:01.242Z,17.60
2017-05-13T23:48:28.963Z,17.70
2017-05-13T23:50:55.842Z,17.70
2017-05-13T23:53:22.753Z,17.70
2017-05-13T23:55:50.070Z,17.80
2017-05-13T23:58:17.354Z,17.80
